createdAt,value
2023-04-07T00:02:13.453Z,2.79
2023-04-07T00:04:41.595Z,2.76
2023-04-07T00:07:09.587Z,2.68
2023-04-07T00:09:37.561Z,2.87
2023-04-07T00:12:05.290Z,2.88
2023-04-07T00:14:32.795Z,2.76
2023-04-07T00:17:00.264Z,2.94
2023-04-07T00:19:27.788Z,2.80
2023-04-07T00:21:55.220Z,2.83
2023-04-07T00:24:33.460Z,2.86
2023-04-07T00:27:01.986Z,2.81
2023-04-07T00:29:29.501Z,2.82
2023-04-07T00:31:57.072Z,2.84
2023-04-07T00:34:24.695Z,2.75
2023-04-07T00:36:55.163Z,2.82
2023-04-07T00:39:23.225Z,2.82
2023-04-07T00:41:51.610Z,2.80
2023-04-07T00:44:19.180Z,2.69
2023-04-07T00:46:48.789Z,2.81
2023-04-07T00:49:20.145Z,2.87
2023-04-07T00:51:47.774Z,2.75
2023-04-07T00:54:15.773Z,2.79
2023-04-07T00:56:43.854Z,2.69
2023-04-07T00:59:11.605Z,2.62
2023-04-07T01:01:46.826Z,2.62
2023-04-07T01:04:28.824Z,2.63
2023-04-07T01:07:04.542Z,2.51
2023-04-07T01:10:01.024Z,2.56
2023-04-07T01:12:38.012Z,2.50
2023-04-07T01:15:09.942Z,2.67
2023-04-07T01:17:46.642Z,2.49
2023-04-07T01:20:18.185Z,2.53
2023-04-07T01:22:57.806Z,2.57
2023-04-07T01:25:54.137Z,2.58
2023-04-07T01:28:40.065Z,2.28
2023-04-07T01:31:11.076Z,2.33
2023-04-07T01:33:40.615Z,2.35
2023-04-07T01:36:09.964Z,2.27
2023-04-07T01:38:39.399Z,2.29
2023-04-07T01:41:08.913Z,2.05
2023-04-07T01:43:38.169Z,1.97
2023-04-07T01:46:05.842Z,1.84
2023-04-07T01:48:36.448Z,1.87
2023-04-07T01:51:06.490Z,1.66
2023-04-07T01:53:38.204Z,1.62
2023-04-07T01:56:06.096Z,1.45
2023-04-07T01:58:35.692Z,1.47
2023-04-07T02:01:05.325Z,1.38
2023-04-07T02:07:49.008Z,1.40
2023-04-07T02:10:20.716Z,1.71
2023-04-07T02:12:49.507Z,1.83
2023-04-07T02:15:20.080Z,2.00
2023-04-07T02:17:52.326Z,2.04
2023-04-07T02:20:21.288Z,2.33
2023-04-07T02:22:50.479Z,2.90
2023-04-07T02:25:30.176Z,3.88
2023-04-07T02:27:59.324Z,4.74
2023-04-07T02:30:27.328Z,5.14
2023-04-07T02:32:58.913Z,5.28
2023-04-07T02:35:26.568Z,5.38
2023-04-07T02:37:54.320Z,5.59
2023-04-07T02:40:21.858Z,5.57
2023-04-07T02:42:49.333Z,5.56
2023-04-07T02:45:16.886Z,5.76
2023-04-07T02:47:44.374Z,6.49
2023-04-07T02:50:12.040Z,7.42
2023-04-07T02:52:39.619Z,8.26
2023-04-07T02:55:12.493Z,8.57
2023-04-07T02:57:40.121Z,8.73
2023-04-07T03:00:15.201Z,8.63
2023-04-07T03:03:03.112Z,8.50
2023-04-07T03:05:34.654Z,8.43
2023-04-07T03:08:03.325Z,8.28
2023-04-07T03:10:30.804Z,8.39
2023-04-07T03:12:58.493Z,8.83
2023-04-07T03:15:26.365Z,9.53
2023-04-07T03:17:53.892Z,10.29
2023-04-07T03:20:21.572Z,10.93
2023-04-07T03:22:49.091Z,11.43
2023-04-07T03:25:22.771Z,11.72
2023-04-07T03:27:51.886Z,12.83
2023-04-07T03:30:20.221Z,13.20
2023-04-07T03:32:47.805Z,13.56
2023-04-07T03:35:15.576Z,14.16
2023-04-07T03:37:44.969Z,14.81
2023-04-07T03:40:16.651Z,15.36
2023-04-07T03:42:47.201Z,15.81
2023-04-07T03:45:17.726Z,16.36
2023-04-07T03:47:50.277Z,16.39
2023-04-07T03:50:18.470Z,16.71
2023-04-07T03:53:00.917Z,17.05
2023-04-07T03:55:31.467Z,17.43
2023-04-07T03:58:05.532Z,17.76
2023-04-07T04:00:35.941Z,17.75
2023-04-07T04:03:11.985Z,18.27
2023-04-07T04:06:00.622Z,18.61
2023-04-07T04:08:31.435Z,18.91
2023-04-07T04:10:59.039Z,19.30
2023-04-07T04:13:32.553Z,19.29
2023-04-07T04:16:05.272Z,19.51
2023-04-07T04:18:33.607Z,19.70
2023-04-07T04:21:01.765Z,19.92
2023-04-07T04:23:29.856Z,20.28
2023-04-07T04:26:00.476Z,20.61
2023-04-07T04:28:29.087Z,21.03
2023-04-07T04:30:56.851Z,21.30
2023-04-07T04:33:24.858Z,21.73
2023-04-07T04:35:55.684Z,21.90
2023-04-07T04:38:24.780Z,22.17
2023-04-07T04:40:57.616Z,22.52
2023-04-07T04:43:29.142Z,22.84
2023-04-07T04:45:57.312Z,23.05
2023-04-07T04:48:27.599Z,22.99
2023-04-07T04:50:55.142Z,23.19
2023-04-07T04:53:22.976Z,23.44
2023-04-07T04:55:58.305Z,23.63
2023-04-07T04:58:36.394Z,23.26
2023-04-07T05:01:04.096Z,23.37
2023-04-07T05:03:38.260Z,23.25
2023-04-07T05:06:13.672Z,23.54
2023-04-07T05:08:43.512Z,23.89
2023-04-07T05:11:13.201Z,23.95
2023-04-07T05:13:42.902Z,24.14
2023-04-07T05:16:12.000Z,24.52
2023-04-07T05:18:39.669Z,24.73
2023-04-07T05:21:07.170Z,25.03
2023-04-07T05:23:36.747Z,25.06
2023-04-07T05:26:06.585Z,25.11
2023-04-07T05:28:34.210Z,25.36
2023-04-07T05:31:07.699Z,25.63
2023-04-07T05:33:36.519Z,25.83
2023-04-07T05:36:04.360Z,26.01
2023-04-07T05:38:33.235Z,26.20
2023-04-07T05:41:08.928Z,26.44
2023-04-07T05:43:37.431Z,26.77
2023-04-07T05:46:06.163Z,26.89
2023-04-07T05:48:38.010Z,26.62
2023-04-07T05:51:05.606Z,26.50
2023-04-07T05:53:33.093Z,26.53
2023-04-07T05:56:00.756Z,26.13
2023-04-07T05:58:54.294Z,25.78
2023-04-07T06:01:21.959Z,25.67
2023-04-07T06:03:51.372Z,25.45
2023-04-07T06:06:24.955Z,25.71
2023-04-07T06:08:52.781Z,25.90
2023-04-07T06:11:20.929Z,25.96
2023-04-07T06:13:48.728Z,26.38
2023-04-07T06:16:17.471Z,26.47
2023-04-07T06:18:46.479Z,26.70
2023-04-07T06:21:14.005Z,26.71
2023-04-07T06:23:41.455Z,26.91
2023-04-07T06:26:13.543Z,26.95
2023-04-07T06:28:41.382Z,27.15
2023-04-07T06:31:09.431Z,27.46
2023-04-07T06:33:38.044Z,27.41
2023-04-07T06:36:05.624Z,27.55
2023-04-07T06:38:33.293Z,27.74
2023-04-07T06:41:01.069Z,27.77
2023-04-07T06:43:28.864Z,27.89
2023-04-07T06:46:01.850Z,27.37
2023-04-07T06:48:29.362Z,27.75
2023-04-07T06:50:56.899Z,27.64
2023-04-07T06:53:24.317Z,27.33
2023-04-07T06:55:51.706Z,27.55
2023-04-07T06:58:19.214Z,27.72
2023-04-07T07:00:46.628Z,27.86
2023-04-07T07:03:14.280Z,27.97
2023-04-07T07:05:41.881Z,28.13
2023-04-07T07:08:09.276Z,28.24
2023-04-07T07:10:36.727Z,28.20
2023-04-07T07:13:04.209Z,28.02
2023-04-07T07:15:31.729Z,27.52
2023-04-07T07:17:59.325Z,27.12
2023-04-07T07:20:26.882Z,26.64
2023-04-07T07:22:54.480Z,26.32
2023-04-07T07:25:22.086Z,25.92
2023-04-07T07:27:53.592Z,25.57
2023-04-07T07:30:22.722Z,24.99
2023-04-07T07:32:51.558Z,24.18
2023-04-07T07:35:20.259Z,23.49
2023-04-07T07:37:47.993Z,22.67
2023-04-07T07:40:15.861Z,21.93
2023-04-07T07:42:43.561Z,21.03
2023-04-07T07:45:12.395Z,20.25
2023-04-07T07:47:40.890Z,19.65
2023-04-07T07:50:08.634Z,19.24
2023-04-07T07:52:36.144Z,18.55
2023-04-07T07:55:03.974Z,18.03
2023-04-07T07:57:32.228Z,17.58
2023-04-07T07:59:59.736Z,17.27
2023-04-07T08:02:31.681Z,16.99
2023-04-07T08:04:59.293Z,16.73
2023-04-07T08:07:27.721Z,16.59
2023-04-07T08:09:55.162Z,16.11
2023-04-07T08:12:22.881Z,15.79
2023-04-07T08:14:50.913Z,15.65
2023-04-07T08:17:18.520Z,15.49
2023-04-07T08:19:46.870Z,15.35
2023-04-07T08:22:14.399Z,15.15
2023-04-07T08:24:42.299Z,15.02
2023-04-07T08:27:09.780Z,14.65
2023-04-07T08:29:37.227Z,14.18
2023-04-07T08:32:04.808Z,13.91
2023-04-07T08:34:32.631Z,13.43
2023-04-07T08:37:00.156Z,12.83
2023-04-07T08:39:28.527Z,12.54
2023-04-07T08:41:57.406Z,12.16
2023-04-07T08:44:27.567Z,12.00
2023-04-07T08:46:57.132Z,11.65
2023-04-07T08:49:27.936Z,11.51
2023-04-07T08:51:57.267Z,11.14
2023-04-07T08:54:24.833Z,10.98
2023-04-07T08:56:53.087Z,10.78
2023-04-07T08:59:26.936Z,10.38
2023-04-07T09:01:55.740Z,10.51
2023-04-07T09:04:24.972Z,10.23
2023-04-07T09:06:52.474Z,9.98
2023-04-07T09:09:19.920Z,9.82
2023-04-07T09:11:49.106Z,9.91
2023-04-07T09:14:16.793Z,9.58
2023-04-07T09:16:44.533Z,9.27
2023-04-07T09:19:12.013Z,9.19
2023-04-07T09:21:50.650Z,9.34
2023-04-07T09:24:26.474Z,9.22
2023-04-07T09:27:20.441Z,9.36
2023-04-07T09:29:48.512Z,8.70
2023-04-07T09:32:41.848Z,8.82
2023-04-07T09:35:12.369Z,8.60
2023-04-07T09:37:39.975Z,8.46
2023-04-07T09:40:08.192Z,8.46
2023-04-07T09:42:38.211Z,8.29
2023-04-07T09:45:06.129Z,8.19
2023-04-07T09:47:33.645Z,7.91
2023-04-07T09:50:07.135Z,7.82
2023-04-07T09:52:54.200Z,8.18
2023-04-07T09:55:23.596Z,7.78
2023-04-07T09:57:51.996Z,7.56
2023-04-07T10:00:19.683Z,7.34
2023-04-07T10:02:48.345Z,7.22
2023-04-07T10:05:15.997Z,7.25
2023-04-07T10:07:43.978Z,7.14
2023-04-07T10:10:11.746Z,6.95
2023-04-07T10:12:41.729Z,6.91
2023-04-07T10:15:12.916Z,6.83
2023-04-07T10:17:41.864Z,7.02
2023-04-07T10:20:11.456Z,7.03
2023-04-07T10:22:42.192Z,6.97
2023-04-07T10:25:11.916Z,6.93
2023-04-07T10:27:54.211Z,7.15
2023-04-07T10:30:27.369Z,6.96
2023-04-07T10:32:55.726Z,6.86
2023-04-07T10:35:24.019Z,6.89
2023-04-07T10:38:16.940Z,6.98
2023-04-07T10:40:45.122Z,6.65
2023-04-07T10:43:12.772Z,6.66
2023-04-07T10:45:49.355Z,6.82
2023-04-07T10:48:18.639Z,6.65
2023-04-07T10:50:47.188Z,6.71
2023-04-07T10:53:17.854Z,6.72
2023-04-07T10:55:55.159Z,6.86
2023-04-07T10:58:33.039Z,6.76
2023-04-07T11:01:00.883Z,6.63
2023-04-07T11:03:30.241Z,6.59
2023-04-07T11:06:11.687Z,6.62
2023-04-07T11:08:46.226Z,6.43
2023-04-07T11:11:17.819Z,6.27
2023-04-07T11:13:47.768Z,6.30
2023-04-07T11:16:17.705Z,6.27
2023-04-07T11:18:48.413Z,6.23
2023-04-07T11:21:20.177Z,6.27
2023-04-07T11:23:48.611Z,6.18
2023-04-07T11:26:16.750Z,6.26
2023-04-07T11:28:50.184Z,6.39
2023-04-07T11:31:29.056Z,6.55
2023-04-07T11:33:59.503Z,6.42
2023-04-07T11:36:37.165Z,6.54
2023-04-07T11:39:04.796Z,6.48
2023-04-07T11:41:33.875Z,6.45
2023-04-07T11:44:12.063Z,6.63
2023-04-07T11:46:59.226Z,6.71
2023-04-07T11:49:29.105Z,6.55
2023-04-07T11:52:05.983Z,6.52
2023-04-07T11:54:50.839Z,6.56
2023-04-07T11:57:26.731Z,6.55
2023-04-07T12:00:08.310Z,6.65
2023-04-07T12:02:36.313Z,6.27
2023-04-07T12:05:07.510Z,6.36
2023-04-07T12:07:35.021Z,6.31
2023-04-07T12:10:27.630Z,6.57
2023-04-07T12:12:55.566Z,6.44
2023-04-07T12:15:24.487Z,6.28
2023-04-07T12:17:52.096Z,6.21
2023-04-07T12:20:19.659Z,6.13
2023-04-07T12:22:47.670Z,6.09
2023-04-07T12:25:15.266Z,5.90
2023-04-07T12:27:44.052Z,5.90
2023-04-07T12:30:16.452Z,6.02
2023-04-07T12:32:44.038Z,5.90
2023-04-07T12:35:11.518Z,5.99
2023-04-07T12:37:39.048Z,5.78
2023-04-07T12:40:07.429Z,5.76
2023-04-07T12:42:35.006Z,5.76
2023-04-07T12:45:03.390Z,5.80
2023-04-07T12:47:32.396Z,5.82
2023-04-07T12:50:00.757Z,5.85
2023-04-07T12:52:28.556Z,5.88
2023-04-07T12:54:57.404Z,5.91
2023-04-07T12:57:25.425Z,5.95
2023-04-07T12:59:53.852Z,5.88
2023-04-07T13:02:21.989Z,5.90
2023-04-07T13:04:49.601Z,5.77
2023-04-07T13:07:17.207Z,5.77
2023-04-07T13:09:44.714Z,5.74
2023-04-07T13:12:12.797Z,5.59
2023-04-07T13:14:52.926Z,5.70
2023-04-07T13:17:25.166Z,5.58
2023-04-07T13:19:52.947Z,5.60
2023-04-07T13:22:22.274Z,5.60
2023-04-07T13:24:51.927Z,5.61
2023-04-07T13:27:19.545Z,5.55
2023-04-07T13:29:47.157Z,5.48
2023-04-07T13:32:16.269Z,5.48
2023-04-07T13:34:44.464Z,5.19
2023-04-07T13:37:12.093Z,5.35
2023-04-07T13:39:39.649Z,5.25
2023-04-07T13:42:07.369Z,5.23
2023-04-07T13:44:37.313Z,5.20
2023-04-07T13:47:57.737Z,5.39
2023-04-07T13:50:41.306Z,5.11
2023-04-07T13:53:09.010Z,4.96
2023-04-07T13:55:37.065Z,5.05
2023-04-07T13:58:04.577Z,4.96
2023-04-07T14:00:32.356Z,4.92
2023-04-07T14:03:00.112Z,4.91
2023-04-07T14:05:30.948Z,4.86
2023-04-07T14:08:00.590Z,4.80
2023-04-07T14:10:28.261Z,4.73
2023-04-07T14:12:58.343Z,4.78
2023-04-07T14:15:26.625Z,4.71
2023-04-07T14:17:54.238Z,4.66
2023-04-07T14:20:21.829Z,4.58
2023-04-07T14:22:49.440Z,4.65
2023-04-07T14:25:17.400Z,4.63
2023-04-07T14:27:45.014Z,4.61
2023-04-07T14:30:14.706Z,4.58
2023-04-07T14:32:42.272Z,4.46
2023-04-07T14:35:09.994Z,4.41
2023-04-07T14:37:37.478Z,4.40
2023-04-07T14:40:05.858Z,4.41
2023-04-07T14:42:33.784Z,4.33
2023-04-07T14:45:02.104Z,4.27
2023-04-07T14:47:30.867Z,4.26
2023-04-07T14:49:58.396Z,4.23
2023-04-07T14:52:26.284Z,4.22
2023-04-07T14:54:53.899Z,4.17
2023-04-07T14:57:22.477Z,4.14
2023-04-07T14:59:50.078Z,4.18
2023-04-07T15:02:17.666Z,4.16
2023-04-07T15:04:45.359Z,4.12
2023-04-07T15:07:12.979Z,4.10
2023-04-07T15:09:40.742Z,4.12
2023-04-07T15:12:08.290Z,4.02
2023-04-07T15:14:35.978Z,4.05
2023-04-07T15:17:03.609Z,4.00
2023-04-07T15:19:31.175Z,3.98
2023-04-07T15:21:58.665Z,4.02
2023-04-07T15:24:26.237Z,4.00
2023-04-07T15:26:54.007Z,3.96
2023-04-07T15:29:21.638Z,3.87
2023-04-07T15:31:49.272Z,3.87
2023-04-07T15:34:16.764Z,3.84
2023-04-07T15:36:44.199Z,3.80
2023-04-07T15:39:11.780Z,3.76
2023-04-07T15:41:39.319Z,3.75
2023-04-07T15:44:06.986Z,3.69
2023-04-07T15:46:34.556Z,3.64
2023-04-07T15:49:02.168Z,3.65
2023-04-07T15:51:30.160Z,3.57
2023-04-07T15:53:57.712Z,3.52
2023-04-07T15:56:25.376Z,3.52
2023-04-07T15:58:52.941Z,3.48
2023-04-07T16:01:20.801Z,3.47
2023-04-07T16:03:48.789Z,3.46
2023-04-07T16:06:16.891Z,3.33
2023-04-07T16:08:45.087Z,3.30
2023-04-07T16:11:12.630Z,3.34
2023-04-07T16:13:40.201Z,3.32
2023-04-07T16:16:08.432Z,3.29
2023-04-07T16:18:36.038Z,3.25
2023-04-07T16:21:07.918Z,3.32
2023-04-07T16:23:35.625Z,3.19
2023-04-07T16:26:03.471Z,3.23
2023-04-07T16:28:33.243Z,3.23
2023-04-07T16:31:02.870Z,3.21
2023-04-07T16:36:29.295Z,3.21
2023-04-07T16:38:57.929Z,3.14
2023-04-07T16:41:25.456Z,3.11
2023-04-07T16:43:53.038Z,3.06
2023-04-07T16:46:20.697Z,3.06
2023-04-07T16:48:48.579Z,3.11
2023-04-07T16:51:19.761Z,3.13
2023-04-07T16:53:47.927Z,3.12
2023-04-07T16:56:20.229Z,2.96
2023-04-07T16:58:51.585Z,2.98
2023-04-07T17:01:19.660Z,2.97
2023-04-07T17:03:51.998Z,2.98
2023-04-07T17:06:19.780Z,2.95
2023-04-07T17:08:49.171Z,2.94
2023-04-07T17:11:16.863Z,2.94
2023-04-07T17:13:44.400Z,2.85
2023-04-07T17:16:15.089Z,2.87
2023-04-07T17:18:42.910Z,2.80
2023-04-07T17:21:10.446Z,2.74
2023-04-07T17:23:38.701Z,2.68
2023-04-07T17:26:06.344Z,2.72
2023-04-07T17:28:33.778Z,2.70
2023-04-07T17:31:04.343Z,2.69
2023-04-07T17:33:32.165Z,2.67
2023-04-07T17:36:03.368Z,2.73
2023-04-07T17:38:31.328Z,2.63
2023-04-07T17:41:00.041Z,2.62
2023-04-07T17:43:28.892Z,2.50
2023-04-07T17:45:56.965Z,2.48
2023-04-07T17:48:24.741Z,2.29
2023-04-07T17:50:52.274Z,2.30
2023-04-07T17:53:20.164Z,2.28
2023-04-07T17:55:48.121Z,2.13
2023-04-07T17:58:15.929Z,2.08
2023-04-07T18:00:43.394Z,2.00
2023-04-07T18:03:12.041Z,2.01
2023-04-07T18:05:46.973Z,1.97
2023-04-07T18:08:15.163Z,1.70
2023-04-07T18:10:42.929Z,1.73
2023-04-07T18:13:10.566Z,1.68
2023-04-07T18:15:38.190Z,1.62
2023-04-07T18:18:06.114Z,1.62
2023-04-07T18:20:33.942Z,1.53
2023-04-07T18:23:04.361Z,1.53
2023-04-07T18:25:31.969Z,1.50
2023-04-07T18:27:59.418Z,1.50
2023-04-07T18:30:27.491Z,1.43
2023-04-07T18:32:55.023Z,1.47
2023-04-07T18:35:22.645Z,1.43
2023-04-07T18:37:53.947Z,1.38
2023-04-07T18:40:21.472Z,1.31
2023-04-07T18:42:48.992Z,1.39
2023-04-07T18:45:16.717Z,1.38
2023-04-07T18:47:44.509Z,1.30
2023-04-07T18:50:12.308Z,1.25
2023-04-07T18:52:39.851Z,1.22
2023-04-07T18:55:09.083Z,1.27
2023-04-07T18:57:36.657Z,1.32
2023-04-07T19:00:04.455Z,1.35
2023-04-07T19:02:32.098Z,1.38
2023-04-07T19:04:59.748Z,1.37
2023-04-07T19:07:27.232Z,1.38
2023-04-07T19:09:54.853Z,1.43
2023-04-07T19:12:22.575Z,1.44
2023-04-07T19:14:50.077Z,1.51
2023-04-07T19:17:17.847Z,1.61
2023-04-07T19:19:45.293Z,1.64
2023-04-07T19:22:12.877Z,1.70
2023-04-07T19:24:41.030Z,1.76
2023-04-07T19:27:09.230Z,1.79
2023-04-07T19:29:37.197Z,1.75
2023-04-07T19:32:04.855Z,1.72
2023-04-07T19:34:32.825Z,1.61
2023-04-07T19:37:00.284Z,1.47
2023-04-07T19:39:27.781Z,1.41
2023-04-07T19:41:56.386Z,1.40
2023-04-07T19:44:23.968Z,1.43
2023-04-07T19:46:55.160Z,1.60
2023-04-07T19:49:22.907Z,1.49
2023-04-07T19:51:54.374Z,1.58
2023-04-07T19:54:22.509Z,1.54
2023-04-07T19:56:50.093Z,1.61
2023-04-07T19:59:17.503Z,1.60
2023-04-07T20:01:45.082Z,1.47
2023-04-07T20:04:12.777Z,1.35
2023-04-07T20:06:40.838Z,1.31
2023-04-07T20:09:08.516Z,1.30
2023-04-07T20:11:35.957Z,1.27
2023-04-07T20:14:03.451Z,1.33
2023-04-07T20:16:34.034Z,1.41
2023-04-07T20:19:01.732Z,1.33
2023-04-07T20:21:29.438Z,1.36
2023-04-07T20:23:56.960Z,1.36
2023-04-07T20:26:24.819Z,1.35
2023-04-07T20:28:52.502Z,1.40
2023-04-07T20:31:20.058Z,1.33
2023-04-07T20:33:47.607Z,1.28
2023-04-07T20:36:15.224Z,1.24
2023-04-07T20:38:44.194Z,1.24
2023-04-07T20:41:14.526Z,1.30
2023-04-07T20:43:42.066Z,1.25
2023-04-07T20:46:09.868Z,1.23
2023-04-07T20:48:38.464Z,1.19
2023-04-07T20:51:06.009Z,1.15
2023-04-07T20:53:33.579Z,1.14
2023-04-07T20:56:03.143Z,1.15
2023-04-07T20:58:30.867Z,1.21
2023-04-07T21:01:00.179Z,1.24
2023-04-07T21:03:28.444Z,1.21
2023-04-07T21:05:57.321Z,1.17
2023-04-07T21:08:24.795Z,1.15
2023-04-07T21:10:53.553Z,1.19
2023-04-07T21:13:22.726Z,1.20
2023-04-07T21:15:50.339Z,1.20
2023-04-07T21:18:19.178Z,1.19
2023-04-07T21:20:47.523Z,1.23
2023-04-07T21:23:15.179Z,1.26
2023-04-07T21:25:42.644Z,1.24
2023-04-07T21:28:10.241Z,1.26
2023-04-07T21:30:42.195Z,1.14
2023-04-07T21:33:10.124Z,1.19
2023-04-07T21:35:38.124Z,1.25
2023-04-07T21:38:05.990Z,1.23
2023-04-07T21:40:33.443Z,1.21
2023-04-07T21:43:01.034Z,1.20
2023-04-07T21:45:29.856Z,1.21
2023-04-07T21:47:57.605Z,1.23
2023-04-07T21:50:25.788Z,1.24
2023-04-07T21:52:53.891Z,1.28
2023-04-07T21:55:21.734Z,1.25
2023-04-07T21:57:50.403Z,1.19
2023-04-07T22:00:18.119Z,1.23
2023-04-07T22:02:45.865Z,1.22
2023-04-07T22:05:14.002Z,1.20
2023-04-07T22:07:41.475Z,1.15
2023-04-07T22:10:09.537Z,1.18
2023-04-07T22:12:37.125Z,1.14
2023-04-07T22:15:05.309Z,1.08
2023-04-07T22:17:32.908Z,1.12
2023-04-07T22:20:00.593Z,1.08
2023-04-07T22:22:28.115Z,1.08
2023-04-07T22:24:55.752Z,1.05
2023-04-07T22:27:23.410Z,1.00
2023-04-07T22:29:50.840Z,1.01
2023-04-07T22:32:18.388Z,0.94
2023-04-07T22:34:46.866Z,0.94
2023-04-07T22:37:14.394Z,0.92
2023-04-07T22:39:42.079Z,0.92
2023-04-07T22:42:09.524Z,0.89
2023-04-07T22:44:37.082Z,0.89
2023-04-07T22:47:04.807Z,0.88
2023-04-07T22:49:32.587Z,0.89
2023-04-07T22:52:00.240Z,0.88
2023-04-07T22:54:27.727Z,0.84
2023-04-07T22:56:55.192Z,0.86
2023-04-07T22:59:22.675Z,0.87
2023-04-07T23:01:50.251Z,0.85
2023-04-07T23:04:17.756Z,0.83
2023-04-07T23:06:45.294Z,0.83
2023-04-07T23:09:12.839Z,0.85
2023-04-07T23:11:40.354Z,0.81
2023-04-07T23:14:08.276Z,0.82
2023-04-07T23:16:36.228Z,0.83
2023-04-07T23:19:03.831Z,0.82
2023-04-07T23:21:32.457Z,0.80
2023-04-07T23:24:00.533Z,0.73
2023-04-07T23:26:28.231Z,0.78
2023-04-07T23:28:55.662Z,0.77
2023-04-07T23:31:23.341Z,0.76
2023-04-07T23:33:50.946Z,0.76
2023-04-07T23:36:18.483Z,0.70
2023-04-07T23:38:46.120Z,0.74
2023-04-07T23:41:13.630Z,0.70
2023-04-07T23:43:41.394Z,0.76
2023-04-07T23:46:08.899Z,0.76
2023-04-07T23:48:36.669Z,0.75
2023-04-07T23:51:04.279Z,0.73
2023-04-07T23:53:31.754Z,0.73
2023-04-07T23:55:59.373Z,0.74
2023-04-07T23:58:26.836Z,0.75
